Flight Track Log - Related Links

Times and Time Zones

All times are in EDT time to prevent confusion due to time zone crossing. See the ASH2792 flight status page for this flight to view local times or setup timezone preferences in your user account.

Time Position Orientation Groundspeed Altitude Reporting Facility
EDT Latitude Longitude Course Direction KTS MPH feet Rate Location/Type
Fri 07:31:27 AM 38.0833 -85.7167 142° Southeast 221 254 4,000  Level Louisville TRACON
Fri 07:31:59 AM 38.0725 -85.6911 118° Southeast 277 319 4,800 2,258 Climbing Indianapolis Center
Fri 07:33:00 AM 38.0744 -85.5961 88° East 273 314 7,500 2,732 Climbing Indianapolis Center
Fri 07:34:02 AM 38.0725 -85.4928 91° East 286 329 10,400 2,537 Climbing Indianapolis Center
Fri 07:35:00 AM 38.0039 -84.8512 98° East  Level FlightAware Approximate
Fri 07:35:03 AM 38.0711 -85.3528 91° East 325 374 12,700  Level Indianapolis Center
Fri 07:36:00 AM 38.0749 -85.6749 142° Southeast  Level FlightAware Approximate
Fri 07:36:05 AM 38.0644 -85.2264 94° East 352 405 15,100  Level Indianapolis Center
Fri 07:37:06 AM 38.0447 -85.0925 101° East 368 423 17,400 2,000 Climbing Indianapolis Center
Fri 07:38:08 AM 38.0275 -84.9625 100° East 370 426 19,200 1,512 Climbing Indianapolis Center
Fri 07:39:09 AM 38.0106 -84.8253 99° East 387 445 20,500 1,220 Climbing Indianapolis Center
Fri 07:40:11 AM 37.9931 -84.6803 99° East 410 472 21,700 1,268 Climbing Indianapolis Center
Fri 07:41:12 AM 37.9700 -84.5314 101° East 425 489 23,100 1,317 Climbing Indianapolis Center
Fri 07:42:14 AM 37.8781 -84.4489 145° Southeast 412 474 24,400 1,268 Climbing Indianapolis Center
Fri 07:43:15 AM 37.7642 -84.4169 167° South 415 478 25,700 1,220 Climbing Indianapolis Center
Fri 07:44:17 AM 37.6497 -84.3836 167° South 419 482 26,900 1,220 Climbing Indianapolis Center
Fri 07:45:18 AM 37.5119 -84.3444 167° South 430 495 28,200 1,024 Climbing Indianapolis Center
Fri 07:46:20 AM 37.3928 -84.3097 167° South 435 501 29,000 390 Climbing Indianapolis Center
Fri 07:47:21 AM 37.2692 -84.2758 168° South 449 517 29,000  Level Indianapolis Center
Fri 07:48:22 AM 37.1542 -84.2431 167° South 430 495 29,000  Level Indianapolis Center
Fri 07:49:24 AM 37.0492 -84.2122 167° South 398 458 29,000  Level Indianapolis Center
Fri 07:50:25 AM 36.9425 -84.1833 168° South 391 450 29,000  Level Indianapolis Center
Fri 07:51:27 AM 36.8367 -84.1539 167° South 393 452 29,000  Level Indianapolis Center
Fri 07:52:29 AM 36.7125 -84.1186 167° South 393 452 29,000  Level Indianapolis Center
Fri 07:53:30 AM 36.6058 -84.0889 167° South 393 452 29,000  Level Indianapolis Center
Fri 07:54:32 AM 36.4972 -84.0589 167° South 393 452 29,000  Level Indianapolis Center
Fri 07:55:33 AM 36.3806 -84.0261 167° South 415 478 29,000  Level Indianapolis Center
Fri 07:56:35 AM 36.2594 -83.9922 167° South 434 499 29,000  Level Indianapolis Center
Fri 07:57:36 AM 36.1383 -83.9594 168° South 437 503 29,000  Level Indianapolis Center
Fri 07:58:38 AM 36.0172 -83.9250 167° South 440 506 29,000  Level Indianapolis Center
Fri 07:59:39 AM 35.9089 -83.8164 141° Southeast 466 536 29,000  Level Indianapolis Center
Fri 08:00:41 AM 35.8994 -83.6511 94° East 484 557 29,000  Level Indianapolis Center
Fri 08:01:42 AM 35.8961 -83.4944 91° East 470 541 29,000  Level Indianapolis Center
Fri 08:02:44 AM 35.8942 -83.3497 91° East 436 502 29,000  Level Indianapolis Center
Fri 08:03:46 AM 35.8983 -83.2014 88° East 435 501 29,000 -269 Level Indianapolis Center
Fri 08:04:58 AM 35.9308 -83.0103 78° East 429 494 28,400 -727 Descending Atlanta Center
Fri 08:05:58 AM 35.9547 -82.8689 78° East 429 494 27,400 -1,000 Descending Atlanta Center
Fri 08:06:58 AM 35.9825 -82.7275 76° East 429 494 26,400 -1,000 Descending Atlanta Center
Fri 08:07:58 AM 35.9975 -82.5861 82° East 429 494 25,400 -1,050 Descending Atlanta Center
Fri 08:08:58 AM 35.9936 -82.4425 92° East 419 482 24,300 -1,450 Descending Atlanta Center
Fri 08:09:58 AM 35.9919 -82.3064 91° East 408 470 22,500 -1,700 Descending Atlanta Center
Fri 08:10:58 AM 35.9942 -82.1908 89° East 388 447 20,900 -1,700 Descending Atlanta Center
Fri 08:11:58 AM 35.9861 -82.0653 94° East 376 433 19,100 -1,700 Descending Atlanta Center
Fri 08:12:58 AM 35.9178 -81.9772 134° Southeast 340 391 17,500 -1,700 Descending Atlanta Center
Fri 08:13:58 AM 35.8453 -81.8869 135° Southeast 350 403 15,700 -1,800 Descending Atlanta Center
Fri 08:14:58 AM 35.7772 -81.8017 135° Southeast 355 409 13,900 -1,800 Descending Atlanta Center
Fri 08:15:58 AM 35.7131 -81.7214 135° Southeast 343 395 12,100 -1,626 Descending Atlanta Center
Fri 08:16:45 AM 35.6575 -81.6542 135° Southeast 313 360 11,000 -1,100 Descending Atlanta Center
Fri 08:16:58 AM 35.6511 -81.6414 122° Southeast 329 379 11,000 -82 Level Atlanta Center
Fri 08:17:58 AM 35.5956 -81.5742 135° Southeast 304 350 10,900 -100 Descending Atlanta Center
Fri 08:18:58 AM 35.5625 -81.4986 118° Southeast 282 325 10,800 -600 Descending Atlanta Center
Fri 08:19:48 AM 35.5861 -81.4186 70° East 259 298 9,800 -1,100 Descending Atlanta Center
Fri 08:19:58 AM 35.5858 -81.4161 98° East 231 266 9,700 -885 Descending Atlanta Center
Fri 08:20:49 AM 35.6031 -81.3417 74° East 234 269 8,900 -1,018 Descending Atlanta Center
Fri 08:21:50 AM 35.6181 -81.2669 76° East 207 238 7,800 -934 Descending Atlanta Center
Fri 08:22:51 AM 35.6289 -81.1950 79° East 207 238 7,000 -414 Descending Atlanta Center
Fri 08:23:46 AM 35.6358 -81.1308 82° East 207 238 7,000  Level Atlanta Center
Fri 08:23:58 AM 35.6397 -81.1181 69° East 211 243 7,000  Level Atlanta Center
Fri 08:24:47 AM 35.6467 -81.0617 81° East 204 235 7,000  Level Atlanta Center
Fri 08:24:58 AM 35.6464 -81.0461 91° East 205 236 7,000  Level Atlanta Center
Fri 08:25:58 AM 35.6014 -81.0019 141° Southeast 178 205 7,000 -216 Level Atlanta Center
Fri 08:26:49 AM 35.5572 -80.9856 163° South 205 236 6,600 -589 Descending Atlanta Center
Fri 08:27:50 AM 35.5008 -80.9800 175° South 202 232 5,900 -793 Descending Atlanta Center
Fri 08:28:50 AM 35.4422 -80.9747 176° South 199 229 5,000 -992 Descending Atlanta Center
Fri 08:29:51 AM 35.3878 -80.9689 175° South 191 220 3,900 -1,082 Descending Atlanta Center
Fri 08:30:52 AM 35.3356 -80.9658 177° South 187 215 2,800 -885 Descending Atlanta Center
Fri 08:31:53 AM 35.2958 -80.9647 179° South 133 153 2,100 -694 Descending Atlanta Center
Fri 08:32:53 AM 35.2603 -80.9586 172° South 122 140 1,400 -700 Descending Atlanta Center
Fri 08:34:00 AM 35.2137 -80.9491 175° South  Level Estimated
Fri 08:41:00 AM 35.2137 -80.9491 North  Level Estimated
Fri 08:42:00 AM 35.2137 -80.9491 39° Northeast  Level Estimated

Login

Don't have an account? Register now (free) for customized features, flight alerts, and more!